Time;durP1;ratioP1;P1;durP2;ratioP2;P2;SDS_P1;SDS_P2;PMS_P1;PMS_P2;Temp;Humidity;BMP_temperature;BMP_pressure;BME280_temperature;BME280_humidity;BME280_pressure;Samples;Min_cycle;Max_cycle;Signal;HPM_P1;HPM_P2
2023/04/18 00:01:27;;;;;;;13.50;7.80;;;;;;;;;;108391;1249;24329;-80
2023/04/18 00:03:54;;;;;;;10.30;7.40;;;;;;;;;;108392;1250;22533;-80
2023/04/18 00:06:21;;;;;;;9.20;4.70;;;;;;;;;;108385;1252;22609;-81
2023/04/18 00:08:47;;;;;;;7.50;5.30;;;;;;;;;;108338;1250;25365;-80
2023/04/18 00:11:13;;;;;;;7.30;6.10;;;;;;;;;;108405;1252;22519;-81
2023/04/18 00:13:40;;;;;;;8.60;6.10;;;;;;;;;;108372;1250;27588;-81
2023/04/18 00:16:12;;;;;;;9.00;5.80;;;;;;;;;;108361;1250;22677;-80
2023/04/18 00:18:38;;;;;;;7.00;5.10;;;;;;;;;;108407;1249;23286;-81
2023/04/18 00:21:05;;;;;;;9.60;6.70;;;;;;;;;;108396;1249;26067;-81
2023/04/18 00:23:33;;;;;;;9.00;8.00;;;;;;;;;;108388;1248;22559;-80
2023/04/18 00:26:00;;;;;;;9.60;7.20;;;;;;;;;;108432;1248;22619;-80
2023/04/18 00:28:26;;;;;;;11.30;7.80;;;;;;;;;;108374;1249;22524;-81
2023/04/18 00:30:52;;;;;;;8.50;6.80;;;;;;;;;;108406;1250;24216;-80
2023/04/18 00:33:19;;;;;;;10.70;7.00;;;;;;;;;;108429;1252;22601;-81
2023/04/18 00:35:45;;;;;;;9.90;6.40;;;;;;;;;;108437;1249;22536;-80
2023/04/18 00:38:11;;;;;;;10.50;6.50;;;;;;;;;;108406;1250;23790;-81
2023/04/18 00:40:38;;;;;;;12.60;7.10;;;;;;;;;;108348;1250;22536;-81
2023/04/18 00:43:06;;;;;;;12.00;7.00;;;;;;;;;;108399;1250;22524;-81
2023/04/18 00:45:32;;;;;;;11.30;7.70;;;;;;;;;;108412;1250;26532;-81
2023/04/18 00:47:58;;;;;;;10.30;7.00;;;;;;;;;;108413;1249;22539;-80
2023/04/18 00:50:25;;;;;;;10.10;6.70;;;;;;;;;;108416;1250;26358;-80
2023/04/18 00:52:51;;;;;;;11.40;9.30;;;;;;;;;;108361;1250;22734;-80
2023/04/18 00:55:17;;;;;;;10.90;6.60;;;;;;;;;;108405;1249;22639;-80
2023/04/18 00:57:44;;;;;;;11.70;6.80;;;;;;;;;;108344;1249;22555;-80
2023/04/18 01:00:11;;;;;;;11.00;8.10;;;;;;;;;;108413;1249;23512;-79
2023/04/18 01:02:38;;;;;;;8.20;6.20;;;;;;;;;;108532;1247;22930;-80
2023/04/18 01:05:05;;;;;;;8.70;6.20;;;;;;;;;;108566;1247;25214;-80
2023/04/18 01:07:32;;;;;;;11.20;7.20;;;;;;;;;;108527;1247;22527;-81
2023/04/18 01:09:59;;;;;;;10.20;6.70;;;;;;;;;;108571;1248;22771;-80
2023/04/18 01:12:25;;;;;;;12.30;7.60;;;;;;;;;;108586;1247;22686;-80
2023/04/18 01:14:51;;;;;;;9.60;7.20;;;;;;;;;;108564;1247;24179;-79
2023/04/18 01:17:18;;;;;;;11.80;7.90;;;;;;;;;;108563;1247;22567;-80
2023/04/18 01:19:47;;;;;;;11.50;8.40;;;;;;;;;;108571;1247;22695;-80
2023/04/18 01:22:14;;;;;;;11.60;7.80;;;;;;;;;;108604;1252;22649;-81
2023/04/18 01:24:41;;;;;;;10.40;7.20;;;;;;;;;;108390;1247;22580;-80
2023/04/18 01:27:09;;;;;;;10.00;7.20;;;;;;;;;;108548;1252;23092;-80
2023/04/18 01:29:36;;;;;;;10.90;9.40;;;;;;;;;;108410;1252;23376;-81
2023/04/18 01:32:02;;;;;;;15.10;9.30;;;;;;;;;;108393;1249;22593;-80
2023/04/18 01:34:29;;;;;;;13.60;7.70;;;;;;;;;;108419;1248;22621;-80
2023/04/18 01:36:55;;;;;;;9.90;7.80;;;;;;;;;;108496;1249;22729;-81
2023/04/18 01:39:22;;;;;;;7.10;5.80;;;;;;;;;;108438;1249;22575;-80
2023/04/18 01:41:48;;;;;;;7.80;6.00;;;;;;;;;;108442;1250;22531;-81
2023/04/18 01:44:15;;;;;;;7.20;5.60;;;;;;;;;;108425;1249;23108;-80
2023/04/18 01:46:41;;;;;;;8.80;6.20;;;;;;;;;;108348;1249;22714;-81
2023/04/18 01:49:08;;;;;;;15.00;7.60;;;;;;;;;;108393;1250;23246;-80
2023/04/18 01:51:35;;;;;;;12.40;6.60;;;;;;;;;;108383;1249;22546;-80
2023/04/18 01:54:01;;;;;;;9.50;6.60;;;;;;;;;;108443;1248;25384;-79
2023/04/18 01:56:27;;;;;;;10.80;6.30;;;;;;;;;;108339;1252;22579;-80
2023/04/18 01:58:54;;;;;;;12.10;7.60;;;;;;;;;;108221;1250;141563;-80
2023/04/18 02:01:21;;;;;;;9.00;6.40;;;;;;;;;;108316;1249;22537;-79
2023/04/18 02:03:47;;;;;;;8.80;7.20;;;;;;;;;;108249;1249;24207;-80
2023/04/18 02:06:14;;;;;;;9.00;6.80;;;;;;;;;;108308;1250;22618;-80
2023/04/18 02:08:40;;;;;;;10.00;7.60;;;;;;;;;;108369;1250;22573;-80
2023/04/18 02:11:06;;;;;;;11.90;7.70;;;;;;;;;;108303;1251;22542;-80
2023/04/18 02:13:33;;;;;;;10.00;7.40;;;;;;;;;;108314;1249;22570;-80
2023/04/18 02:15:59;;;;;;;13.10;8.00;;;;;;;;;;108306;1249;22570;-81
2023/04/18 02:18:25;;;;;;;9.50;7.10;;;;;;;;;;107689;1252;25339;-80
2023/04/18 02:20:52;;;;;;;9.50;6.70;;;;;;;;;;107634;1249;22544;-80
2023/04/18 02:23:18;;;;;;;11.80;7.80;;;;;;;;;;107658;1249;24229;-79
2023/04/18 02:25:45;;;;;;;10.10;7.20;;;;;;;;;;107727;1254;22520;-80
2023/04/18 02:28:11;;;;;;;13.50;9.30;;;;;;;;;;108286;1250;25005;-80
2023/04/18 02:30:37;;;;;;;13.90;10.80;;;;;;;;;;108375;1250;22562;-80
2023/04/18 02:33:04;;;;;;;20.80;8.30;;;;;;;;;;108350;1250;22539;-81
2023/04/18 02:35:30;;;;;;;12.40;9.60;;;;;;;;;;108375;1251;22650;-81
2023/04/18 02:37:57;;;;;;;12.00;9.70;;;;;;;;;;108356;1250;25432;-81
2023/04/18 02:40:23;;;;;;;11.20;7.80;;;;;;;;;;108383;1250;22548;-80
2023/04/18 02:42:49;;;;;;;15.20;9.10;;;;;;;;;;108378;1249;22993;-80
2023/04/18 02:45:16;;;;;;;13.00;8.90;;;;;;;;;;108333;1250;24167;-79
2023/04/18 02:47:44;;;;;;;11.90;9.00;;;;;;;;;;108391;1249;24244;-80
2023/04/18 02:50:10;;;;;;;12.50;9.30;;;;;;;;;;108375;1250;22632;-81
2023/04/18 02:52:37;;;;;;;15.80;10.30;;;;;;;;;;108350;1250;23994;-80
2023/04/18 02:55:03;;;;;;;13.90;10.30;;;;;;;;;;108372;1249;22626;-80
2023/04/18 02:57:29;;;;;;;12.70;9.40;;;;;;;;;;108279;1249;22515;-79
2023/04/18 02:59:56;;;;;;;11.50;9.90;;;;;;;;;;108318;1249;22537;-81
2023/04/18 03:02:22;;;;;;;11.60;9.20;;;;;;;;;;108366;1248;24309;-80
2023/04/18 03:04:48;;;;;;;14.80;10.70;;;;;;;;;;108389;1249;23267;-80
2023/04/18 03:07:15;;;;;;;12.90;11.60;;;;;;;;;;108388;1249;22530;-81
2023/04/18 03:09:41;;;;;;;11.90;9.20;;;;;;;;;;110875;1249;23255;-81
2023/04/18 03:12:08;;;;;;;14.90;9.50;;;;;;;;;;110856;1248;22241;-77
2023/04/18 03:14:34;;;;;;;11.60;8.20;;;;;;;;;;110893;1249;22305;-77
2023/04/18 03:17:01;;;;;;;14.00;8.60;;;;;;;;;;110922;1248;22973;-78
2023/04/18 03:19:27;;;;;;;11.30;7.90;;;;;;;;;;110888;1248;22255;-78
2023/04/18 03:21:54;;;;;;;12.60;9.30;;;;;;;;;;110884;1249;22352;-78
2023/04/18 03:24:20;;;;;;;13.40;8.60;;;;;;;;;;110909;1248;22391;-78
2023/04/18 03:26:46;;;;;;;12.30;10.50;;;;;;;;;;110893;1249;22386;-78
2023/04/18 03:29:13;;;;;;;13.60;10.80;;;;;;;;;;110880;1249;22351;-78
2023/04/18 03:31:40;;;;;;;13.30;9.50;;;;;;;;;;109343;1250;22718;-80
2023/04/18 03:34:06;;;;;;;15.60;10.20;;;;;;;;;;107715;1250;22868;-80
2023/04/18 03:36:32;;;;;;;16.20;9.40;;;;;;;;;;108285;1250;23169;-80
2023/04/18 03:38:59;;;;;;;11.10;9.40;;;;;;;;;;108258;1250;22537;-81
2023/04/18 03:41:26;;;;;;;14.70;9.60;;;;;;;;;;108380;1248;22563;-81
2023/04/18 03:43:53;;;;;;;15.80;8.60;;;;;;;;;;108328;1250;24434;-80
2023/04/18 03:46:20;;;;;;;13.00;10.00;;;;;;;;;;108290;1250;24347;-81
2023/04/18 03:48:47;;;;;;;11.30;9.10;;;;;;;;;;108349;1250;24215;-81
2023/04/18 03:51:13;;;;;;;11.70;8.60;;;;;;;;;;108568;1249;25507;-80
2023/04/18 03:53:39;;;;;;;14.00;9.40;;;;;;;;;;110480;1248;22163;-78
2023/04/18 03:56:06;;;;;;;13.70;9.00;;;;;;;;;;108797;1250;22522;-81
2023/04/18 03:58:33;;;;;;;14.20;11.70;;;;;;;;;;108170;1250;25377;-81
2023/04/18 04:00:59;;;;;;;10.00;7.80;;;;;;;;;;110051;1247;22342;-80
2023/04/18 04:03:26;;;;;;;12.70;8.60;;;;;;;;;;111028;1247;22503;-78
2023/04/18 04:05:53;;;;;;;10.60;8.00;;;;;;;;;;110972;1247;22180;-78
2023/04/18 04:08:20;;;;;;;16.30;10.20;;;;;;;;;;109562;1250;22763;-81
2023/04/18 04:10:47;;;;;;;11.00;8.60;;;;;;;;;;108501;1248;23108;-80
2023/04/18 04:13:13;;;;;;;16.10;10.80;;;;;;;;;;108489;1247;24920;-81
2023/04/18 04:15:39;;;;;;;15.00;9.50;;;;;;;;;;108500;1248;22553;-80
2023/04/18 04:18:06;;;;;;;14.80;10.60;;;;;;;;;;108551;1247;22560;-80
2023/04/18 04:20:32;;;;;;;14.30;10.40;;;;;;;;;;108497;1247;23771;-80
2023/04/18 04:22:59;;;;;;;13.00;9.20;;;;;;;;;;108477;1247;22545;-79
2023/04/18 04:25:27;;;;;;;11.10;9.00;;;;;;;;;;108280;1247;26293;-79
2023/04/18 04:27:53;;;;;;;12.60;9.60;;;;;;;;;;108471;1247;23207;-81
2023/04/18 04:30:20;;;;;;;16.30;10.60;;;;;;;;;;108342;1252;26460;-80
2023/04/18 04:32:46;;;;;;;13.30;9.40;;;;;;;;;;108300;1250;25190;-79
2023/04/18 04:35:13;;;;;;;13.30;10.20;;;;;;;;;;107708;1249;22756;-79
2023/04/18 04:37:40;;;;;;;17.30;12.10;;;;;;;;;;107738;1252;22523;-80
2023/04/18 04:40:08;;;;;;;26.10;14.10;;;;;;;;;;107693;1250;24239;-79
2023/04/18 04:42:34;;;;;;;30.00;18.80;;;;;;;;;;107688;1252;25899;-79
2023/04/18 04:45:01;;;;;;;36.50;21.90;;;;;;;;;;107683;1250;22532;-79
2023/04/18 04:47:27;;;;;;;44.70;29.60;;;;;;;;;;107695;1249;26529;-79
2023/04/18 04:49:54;;;;;;;86.80;60.90;;;;;;;;;;107687;1252;22521;-80
2023/04/18 04:52:20;;;;;;;112.90;84.30;;;;;;;;;;107695;1248;24075;-79
2023/04/18 04:54:47;;;;;;;46.50;33.10;;;;;;;;;;107706;1250;22610;-80
2023/04/18 04:57:14;;;;;;;39.30;28.10;;;;;;;;;;107683;1252;23320;-80
2023/04/18 04:59:40;;;;;;;32.00;19.80;;;;;;;;;;107637;1250;22549;-80
2023/04/18 05:02:07;;;;;;;28.60;18.10;;;;;;;;;;107897;1250;23152;-80
2023/04/18 05:04:33;;;;;;;49.00;33.70;;;;;;;;;;107911;1251;25294;-80
2023/04/18 05:07:00;;;;;;;40.30;29.60;;;;;;;;;;107734;1250;25373;-80
2023/04/18 05:09:26;;;;;;;37.20;26.40;;;;;;;;;;107745;1250;25506;-80
2023/04/18 05:11:54;;;;;;;31.00;21.50;;;;;;;;;;107756;1248;25077;-79
2023/04/18 05:14:20;;;;;;;31.40;20.70;;;;;;;;;;107743;1250;22518;-80
2023/04/18 05:16:47;;;;;;;32.60;23.20;;;;;;;;;;107714;1249;22724;-79
2023/04/18 05:19:13;;;;;;;38.60;25.20;;;;;;;;;;107779;1250;22527;-80
2023/04/18 05:21:40;;;;;;;35.20;25.50;;;;;;;;;;107740;1250;22647;-80
2023/04/18 05:24:06;;;;;;;49.50;33.40;;;;;;;;;;107754;1249;25263;-79
2023/04/18 05:26:33;;;;;;;42.90;30.60;;;;;;;;;;107851;1248;25306;-80
2023/04/18 05:28:59;;;;;;;37.30;28.40;;;;;;;;;;107953;1250;22517;-79
2023/04/18 05:31:26;;;;;;;41.40;30.90;;;;;;;;;;108081;1248;22528;-80
2023/04/18 05:33:52;;;;;;;32.10;22.20;;;;;;;;;;108130;1248;23272;-80
2023/04/18 05:36:19;;;;;;;31.40;22.80;;;;;;;;;;108036;1250;22550;-81
2023/04/18 05:38:45;;;;;;;59.50;41.70;;;;;;;;;;107722;1250;24471;-79
2023/04/18 05:41:11;;;;;;;36.80;24.20;;;;;;;;;;107694;1249;24337;-80
2023/04/18 05:43:38;;;;;;;56.90;44.00;;;;;;;;;;107825;1250;23757;-80
2023/04/18 05:46:04;;;;;;;43.90;30.00;;;;;;;;;;108067;1248;25380;-79
2023/04/18 05:48:30;;;;;;;41.50;29.20;;;;;;;;;;107945;1251;25255;-80
2023/04/18 05:50:57;;;;;;;48.70;28.70;;;;;;;;;;107654;1252;24244;-80
2023/04/18 05:53:23;;;;;;;35.10;23.90;;;;;;;;;;108355;1250;22564;-79
2023/04/18 05:55:50;;;;;;;41.40;27.60;;;;;;;;;;107729;1249;22572;-79
2023/04/18 05:58:16;;;;;;;47.80;32.40;;;;;;;;;;107711;1250;27055;-80
2023/04/18 06:00:43;;;;;;;51.80;34.90;;;;;;;;;;107892;1251;23253;-79
2023/04/18 06:03:09;;;;;;;46.80;27.50;;;;;;;;;;108784;1249;23035;-80
2023/04/18 06:05:35;;;;;;;31.30;21.10;;;;;;;;;;108673;1250;25607;-81
2023/04/18 06:08:02;;;;;;;26.40;18.50;;;;;;;;;;107784;1250;22553;-81
2023/04/18 06:10:28;;;;;;;27.00;18.60;;;;;;;;;;108065;1252;22536;-79
2023/04/18 06:12:55;;;;;;;22.60;15.90;;;;;;;;;;107940;1250;22521;-79
2023/04/18 06:15:21;;;;;;;23.50;15.50;;;;;;;;;;108164;1252;22529;-80
2023/04/18 06:17:47;;;;;;;22.90;15.00;;;;;;;;;;108054;1251;22522;-80
2023/04/18 06:20:14;;;;;;;23.00;17.70;;;;;;;;;;107867;1250;22726;-81
2023/04/18 06:22:40;;;;;;;23.40;15.70;;;;;;;;;;107981;1250;22529;-81
2023/04/18 06:25:10;;;;;;;20.50;16.00;;;;;;;;;;107992;1250;23139;-79
2023/04/18 06:27:36;;;;;;;23.00;15.60;;;;;;;;;;108058;1252;22530;-79
2023/04/18 06:30:03;;;;;;;23.30;14.60;;;;;;;;;;108715;1248;25348;-80
2023/04/18 06:32:29;;;;;;;18.20;11.60;;;;;;;;;;109136;1250;24400;-79
2023/04/18 06:34:56;;;;;;;32.60;20.10;;;;;;;;;;109332;1252;22588;-79
2023/04/18 06:37:22;;;;;;;33.20;18.70;;;;;;;;;;108123;1249;24348;-80
2023/04/18 06:39:48;;;;;;;22.80;15.50;;;;;;;;;;109377;1251;22592;-78
2023/04/18 06:42:15;;;;;;;23.50;15.30;;;;;;;;;;108077;1249;22544;-79
2023/04/18 06:44:42;;;;;;;18.10;12.30;;;;;;;;;;108162;1250;22517;-78
2023/04/18 06:47:08;;;;;;;22.00;15.00;;;;;;;;;;107813;1250;22526;-81
2023/04/18 06:49:34;;;;;;;21.60;13.70;;;;;;;;;;108554;1251;23714;-80
2023/04/18 06:52:01;;;;;;;18.90;13.60;;;;;;;;;;107925;1248;22549;-80
2023/04/18 06:54:27;;;;;;;16.20;12.40;;;;;;;;;;109544;1252;25468;-80
2023/04/18 06:56:53;;;;;;;19.40;13.90;;;;;;;;;;107869;1250;23926;-79
2023/04/18 06:59:20;;;;;;;19.10;13.10;;;;;;;;;;107876;1250;22504;-79
2023/04/18 07:01:46;;;;;;;21.80;14.30;;;;;;;;;;107868;1250;25385;-80
2023/04/18 07:04:13;;;;;;;18.00;13.20;;;;;;;;;;107864;1250;25277;-79
2023/04/18 07:06:39;;;;;;;26.50;18.70;;;;;;;;;;107877;1252;22551;-79
2023/04/18 07:09:05;;;;;;;20.90;13.00;;;;;;;;;;107955;1250;25440;-78
2023/04/18 07:11:32;;;;;;;15.90;12.80;;;;;;;;;;108022;1248;22583;-79
2023/04/18 07:13:58;;;;;;;20.10;13.10;;;;;;;;;;108084;1249;24337;-79
2023/04/18 07:16:24;;;;;;;17.40;12.50;;;;;;;;;;108028;1252;22518;-78
2023/04/18 07:18:51;;;;;;;18.50;13.80;;;;;;;;;;108110;1252;23040;-80
2023/04/18 07:21:17;;;;;;;24.20;14.90;;;;;;;;;;108154;1250;25378;-78
2023/04/18 07:23:44;;;;;;;20.10;12.30;;;;;;;;;;110825;1250;22275;-79
2023/04/18 07:26:12;;;;;;;15.90;11.60;;;;;;;;;;110113;1251;22611;-79
2023/04/18 07:28:38;;;;;;;15.80;10.30;;;;;;;;;;108642;1251;23210;-79
2023/04/18 07:31:05;;;;;;;16.10;11.40;;;;;;;;;;107921;1251;22586;-79
2023/04/18 07:33:32;;;;;;;12.50;10.00;;;;;;;;;;108017;1253;25377;-80
2023/04/18 07:36:02;;;;;;;13.30;9.80;;;;;;;;;;107985;1252;23227;-79
2023/04/18 07:38:28;;;;;;;11.60;9.90;;;;;;;;;;107843;1253;26377;-79
2023/04/18 07:40:55;;;;;;;13.30;9.40;;;;;;;;;;108004;1252;22529;-80
2023/04/18 07:43:21;;;;;;;14.50;9.90;;;;;;;;;;107906;1252;22518;-79
2023/04/18 07:45:48;;;;;;;20.20;9.60;;;;;;;;;;107896;1252;23254;-81
2023/04/18 07:48:14;;;;;;;12.60;8.60;;;;;;;;;;107821;1250;26077;-80
2023/04/18 07:50:40;;;;;;;12.60;9.50;;;;;;;;;;107929;1251;25389;-79
2023/04/18 07:53:07;;;;;;;11.90;9.40;;;;;;;;;;107796;1252;24421;-79
2023/04/18 07:55:34;;;;;;;13.80;9.70;;;;;;;;;;107816;1251;22530;-79
2023/04/18 07:58:00;;;;;;;14.30;8.60;;;;;;;;;;107822;1250;22793;-80
2023/04/18 08:00:31;;;;;;;15.30;9.80;;;;;;;;;;107963;1250;25371;-79
2023/04/18 08:02:57;;;;;;;11.50;9.00;;;;;;;;;;107844;1252;25347;-79
2023/04/18 08:05:24;;;;;;;13.00;9.30;;;;;;;;;;108004;1251;23947;-80
2023/04/18 08:07:51;;;;;;;14.40;9.50;;;;;;;;;;108772;1249;22333;-79
2023/04/18 08:10:18;;;;;;;18.90;9.00;;;;;;;;;;110845;1248;22475;-79
2023/04/18 08:12:44;;;;;;;18.50;12.30;;;;;;;;;;110798;1251;22345;-80
2023/04/18 08:15:10;;;;;;;14.50;9.00;;;;;;;;;;110784;1253;22389;-79
2023/04/18 08:17:37;;;;;;;15.80;8.30;;;;;;;;;;110813;1250;22410;-80
2023/04/18 08:20:07;;;;;;;9.60;7.80;;;;;;;;;;110815;1251;22359;-79
2023/04/18 08:22:33;;;;;;;20.40;10.50;;;;;;;;;;110842;1252;22675;-79
2023/04/18 08:25:00;;;;;;;14.70;7.60;;;;;;;;;;109008;1251;24111;-80
2023/04/18 08:27:27;;;;;;;12.60;9.00;;;;;;;;;;108457;1251;24226;-80
2023/04/18 08:29:54;;;;;;;15.00;8.20;;;;;;;;;;108607;1252;22522;-80
2023/04/18 08:32:20;;;;;;;13.00;7.10;;;;;;;;;;108552;1251;23123;-79
2023/04/18 08:34:46;;;;;;;9.20;7.50;;;;;;;;;;108531;1250;22541;-79
2023/04/18 08:37:13;;;;;;;8.00;6.60;;;;;;;;;;108511;1250;23119;-79
2023/04/18 08:39:39;;;;;;;12.80;7.30;;;;;;;;;;110488;1250;22466;-80
2023/04/18 08:42:06;;;;;;;11.30;6.60;;;;;;;;;;110793;1250;22580;-80
2023/04/18 08:44:32;;;;;;;11.30;7.60;;;;;;;;;;108617;1251;23189;-80
2023/04/18 08:47:00;;;;;;;9.20;6.40;;;;;;;;;;108616;1253;23398;-80
2023/04/18 08:49:27;;;;;;;11.20;6.80;;;;;;;;;;108641;1250;22573;-80
2023/04/18 08:51:56;;;;;;;8.80;6.30;;;;;;;;;;108656;1251;22532;-80
2023/04/18 08:54:22;;;;;;;10.90;7.10;;;;;;;;;;108574;1250;25001;-80
2023/04/18 08:57:28;;;;;;;9.50;6.90;;;;;;;;;;108526;1253;25556;-80
2023/04/18 08:59:56;;;;;;;12.20;6.60;;;;;;;;;;108130;1258;23403;-79
2023/04/18 09:02:33;;;;;;;9.70;7.00;;;;;;;;;;107811;1253;22541;-80
2023/04/18 09:05:01;;;;;;;11.80;6.80;;;;;;;;;;108611;1250;22497;-79
2023/04/18 09:07:27;;;;;;;9.00;7.30;;;;;;;;;;108753;1251;22778;-79
2023/04/18 09:09:56;;;;;;;38.80;11.20;;;;;;;;;;108010;1252;22565;-80
2023/04/18 09:12:23;;;;;;;13.40;7.60;;;;;;;;;;109678;1251;25052;-78
2023/04/18 09:14:50;;;;;;;10.20;7.20;;;;;;;;;;107795;1250;24216;-79
2023/04/18 09:17:36;;;;;;;8.20;6.80;;;;;;;;;;108583;1252;25278;-77
2023/04/18 09:20:04;;;;;;;10.20;7.40;;;;;;;;;;107868;1252;22591;-82
2023/04/18 09:22:52;;;;;;;11.80;7.90;;;;;;;;;;107818;1251;26412;-76
2023/04/18 09:25:37;;;;;;;9.00;7.00;;;;;;;;;;107742;1253;24278;-76
2023/04/18 09:28:04;;;;;;;17.90;7.50;;;;;;;;;;107851;1252;22548;-76
2023/04/18 09:30:31;;;;;;;8.60;6.60;;;;;;;;;;107876;1251;22635;-77
2023/04/18 09:32:59;;;;;;;11.90;6.00;;;;;;;;;;107554;1249;25500;-76
2023/04/18 09:35:25;;;;;;;10.20;7.40;;;;;;;;;;107859;1250;23612;-84
2023/04/18 09:37:52;;;;;;;6.50;4.60;;;;;;;;;;107748;1251;22543;-84
2023/04/18 09:40:18;;;;;;;14.90;9.00;;;;;;;;;;107872;1252;22527;-84
2023/04/18 09:42:45;;;;;;;17.40;9.00;;;;;;;;;;107812;1253;22522;-77
2023/04/18 09:45:15;;;;;;;8.50;5.80;;;;;;;;;;110402;1251;22575;-84
2023/04/18 09:47:41;;;;;;;14.60;6.30;;;;;;;;;;107833;1251;22636;-83
2023/04/18 09:50:08;;;;;;;8.50;6.10;;;;;;;;;;107902;1253;22526;-76
2023/04/18 09:52:36;;;;;;;10.20;5.60;;;;;;;;;;107811;1251;23458;-84
2023/04/18 09:55:03;;;;;;;14.40;6.30;;;;;;;;;;107784;1250;25753;-77
2023/04/18 09:57:30;;;;;;;13.00;6.60;;;;;;;;;;107829;1249;23733;-76
2023/04/18 10:00:02;;;;;;;10.20;6.60;;;;;;;;;;107839;1250;25360;-77
2023/04/18 10:02:31;;;;;;;9.70;5.90;;;;;;;;;;108022;1254;25498;-79
2023/04/18 10:04:57;;;;;;;24.40;9.40;;;;;;;;;;107904;1251;24318;-78
2023/04/18 10:07:23;;;;;;;9.90;7.80;;;;;;;;;;107776;1251;22547;-78
2023/04/18 10:09:50;;;;;;;12.60;8.90;;;;;;;;;;107929;1250;23194;-78
2023/04/18 10:12:16;;;;;;;14.30;8.70;;;;;;;;;;107998;1251;26089;-79
2023/04/18 10:14:43;;;;;;;9.40;6.20;;;;;;;;;;107845;1248;24292;-78
2023/04/18 10:17:09;;;;;;;8.50;5.80;;;;;;;;;;107807;1251;22988;-78
2023/04/18 10:19:36;;;;;;;10.70;6.10;;;;;;;;;;107881;1251;24197;-79
2023/04/18 10:22:02;;;;;;;10.40;7.10;;;;;;;;;;107953;1250;22517;-79
2023/04/18 10:24:48;;;;;;;10.50;6.10;;;;;;;;;;107853;1250;25338;-78
2023/04/18 10:27:15;;;;;;;11.20;5.70;;;;;;;;;;107901;1249;25384;-78
2023/04/18 10:29:48;;;;;;;10.10;6.30;;;;;;;;;;107883;1251;26353;-79
2023/04/18 10:32:19;;;;;;;12.10;6.10;;;;;;;;;;107921;1250;23363;-80
2023/04/18 10:34:46;;;;;;;10.00;5.60;;;;;;;;;;107744;1249;25506;-79
2023/04/18 10:37:12;;;;;;;17.30;6.60;;;;;;;;;;107822;1251;22687;-79
2023/04/18 10:39:55;;;;;;;6.50;5.70;;;;;;;;;;107955;1252;22662;-79
2023/04/18 10:42:41;;;;;;;13.60;6.30;;;;;;;;;;107838;1251;25418;-79
2023/04/18 10:45:18;;;;;;;7.60;5.00;;;;;;;;;;107820;1251;22630;-79
2023/04/18 10:47:44;;;;;;;6.00;4.40;;;;;;;;;;107838;1249;22524;-79
2023/04/18 10:50:10;;;;;;;12.80;5.80;;;;;;;;;;108134;1251;22560;-78
2023/04/18 10:52:37;;;;;;;7.50;5.20;;;;;;;;;;107984;1251;25242;-80
2023/04/18 10:55:06;;;;;;;7.40;5.20;;;;;;;;;;107778;1251;23737;-78
2023/04/18 10:57:36;;;;;;;15.70;5.00;;;;;;;;;;107855;1250;24256;-78
2023/04/18 11:00:04;;;;;;;10.50;5.80;;;;;;;;;;107918;1249;25157;-79
2023/04/18 11:02:32;;;;;;;6.30;4.10;;;;;;;;;;107989;1251;22763;-78
2023/04/18 11:04:58;;;;;;;12.70;6.00;;;;;;;;;;107833;1253;22525;-78
2023/04/18 11:07:34;;;;;;;9.40;5.10;;;;;;;;;;107894;1251;22534;-80
2023/04/18 11:10:00;;;;;;;9.60;6.30;;;;;;;;;;108144;1251;22632;-79
2023/04/18 11:12:31;;;;;;;12.30;5.20;;;;;;;;;;107950;1248;22576;-79
2023/04/18 11:14:57;;;;;;;8.30;4.60;;;;;;;;;;110692;1250;22426;-79
2023/04/18 11:17:24;;;;;;;9.70;5.60;;;;;;;;;;108013;1251;22538;-79
2023/04/18 11:20:08;;;;;;;8.20;5.10;;;;;;;;;;108184;1252;25387;-78
2023/04/18 11:22:47;;;;;;;8.50;5.00;;;;;;;;;;108107;1249;22667;-79
2023/04/18 11:25:14;;;;;;;8.70;6.10;;;;;;;;;;108138;1253;22653;-78
2023/04/18 11:27:41;;;;;;;6.50;3.60;;;;;;;;;;108115;1251;23265;-79
2023/04/18 11:30:08;;;;;;;8.10;4.10;;;;;;;;;;108113;1250;22524;-80
2023/04/18 11:32:35;;;;;;;24.50;8.00;;;;;;;;;;108180;1252;25294;-78
2023/04/18 11:35:02;;;;;;;14.20;7.40;;;;;;;;;;107851;1251;24250;-78
2023/04/18 11:37:28;;;;;;;13.30;4.70;;;;;;;;;;109602;1251;25464;-79
2023/04/18 11:39:54;;;;;;;6.50;4.10;;;;;;;;;;108194;1251;23296;-80
2023/04/18 11:42:27;;;;;;;7.00;4.90;;;;;;;;;;107931;1252;22579;-78
2023/04/18 11:44:53;;;;;;;8.50;4.50;;;;;;;;;;108990;1251;25377;-79
2023/04/18 11:47:20;;;;;;;8.00;4.40;;;;;;;;;;107861;1249;22534;-79
2023/04/18 11:49:47;;;;;;;9.50;4.70;;;;;;;;;;107906;1251;22550;-78
2023/04/18 11:52:13;;;;;;;7.90;5.50;;;;;;;;;;107989;1251;22526;-79
2023/04/18 11:54:40;;;;;;;5.70;4.40;;;;;;;;;;107954;1250;22550;-79
2023/04/18 11:57:17;;;;;;;4.90;3.50;;;;;;;;;;108068;1251;24276;-79
2023/04/18 11:59:54;;;;;;;9.90;4.50;;;;;;;;;;107970;1249;24285;-79
2023/04/18 12:02:21;;;;;;;6.60;4.70;;;;;;;;;;107928;1251;22527;-78
2023/04/18 12:04:57;;;;;;;6.30;4.00;;;;;;;;;;107910;1250;24272;-78
2023/04/18 12:07:42;;;;;;;6.80;4.20;;;;;;;;;;107826;1252;25410;-78
2023/04/18 12:10:18;;;;;;;6.00;4.30;;;;;;;;;;108001;1251;22650;-78
2023/04/18 12:12:48;;;;;;;8.90;4.10;;;;;;;;;;107809;1250;22559;-77
2023/04/18 12:15:15;;;;;;;6.30;3.80;;;;;;;;;;107855;1250;22535;-78
2023/04/18 12:17:42;;;;;;;6.30;3.80;;;;;;;;;;107843;1253;22584;-79
2023/04/18 12:20:09;;;;;;;13.80;4.60;;;;;;;;;;108528;1251;22563;-78
2023/04/18 12:22:36;;;;;;;5.10;3.90;;;;;;;;;;107878;1251;25508;-78
2023/04/18 12:25:13;;;;;;;8.10;3.90;;;;;;;;;;107867;1249;22525;-79
2023/04/18 12:27:46;;;;;;;10.50;7.50;;;;;;;;;;107888;1250;22542;-79
2023/04/18 12:30:13;;;;;;;7.50;3.70;;;;;;;;;;107905;1253;22527;-79
2023/04/18 12:32:39;;;;;;;8.10;3.20;;;;;;;;;;107942;1251;25282;-79
2023/04/18 12:35:07;;;;;;;4.40;3.20;;;;;;;;;;107840;1249;24606;-79
2023/04/18 12:37:33;;;;;;;8.10;3.80;;;;;;;;;;107926;1252;24789;-79
2023/04/18 12:39:59;;;;;;;8.20;3.60;;;;;;;;;;107953;1250;22514;-79
2023/04/18 12:42:26;;;;;;;7.80;3.60;;;;;;;;;;107783;1251;25372;-80
2023/04/18 12:44:52;;;;;;;5.40;3.50;;;;;;;;;;107778;1250;22620;-80
2023/04/18 12:47:18;;;;;;;5.40;3.50;;;;;;;;;;107849;1250;22656;-79
2023/04/18 12:49:45;;;;;;;4.20;3.20;;;;;;;;;;107962;1251;25354;-79
2023/04/18 12:52:11;;;;;;;7.20;3.40;;;;;;;;;;107776;1249;24021;-80
2023/04/18 12:54:37;;;;;;;13.00;3.90;;;;;;;;;;107818;1250;24188;-79
2023/04/18 12:57:04;;;;;;;5.10;3.00;;;;;;;;;;108216;1251;25357;-78
2023/04/18 12:59:30;;;;;;;7.50;3.20;;;;;;;;;;107771;1248;25196;-80
2023/04/18 13:01:56;;;;;;;5.00;3.60;;;;;;;;;;107710;1249;23501;-80
2023/04/18 13:04:23;;;;;;;6.20;3.10;;;;;;;;;;107636;1249;22524;-80
2023/04/18 13:06:49;;;;;;;5.20;3.10;;;;;;;;;;107675;1251;22528;-79
2023/04/18 13:09:16;;;;;;;4.70;3.30;;;;;;;;;;107666;1249;22535;-78
2023/04/18 13:11:42;;;;;;;6.80;3.80;;;;;;;;;;107663;1250;22560;-78
2023/04/18 13:14:09;;;;;;;4.90;3.40;;;;;;;;;;107638;1249;24386;-79
2023/04/18 13:16:35;;;;;;;7.20;3.50;;;;;;;;;;107723;1252;22562;-78
2023/04/18 13:19:01;;;;;;;8.80;3.40;;;;;;;;;;107688;1250;22524;-79
2023/04/18 13:21:28;;;;;;;3.60;2.50;;;;;;;;;;107710;1249;22667;-80
2023/04/18 13:23:54;;;;;;;8.60;4.30;;;;;;;;;;107717;1252;22938;-80
2023/04/18 13:26:20;;;;;;;9.20;4.00;;;;;;;;;;107738;1251;23061;-79
2023/04/18 13:28:47;;;;;;;8.10;3.50;;;;;;;;;;107863;1248;25370;-79
2023/04/18 13:31:13;;;;;;;5.60;3.30;;;;;;;;;;107885;1250;25551;-79
2023/04/18 13:33:40;;;;;;;6.10;2.80;;;;;;;;;;107712;1248;22541;-80
2023/04/18 13:36:06;;;;;;;4.60;3.30;;;;;;;;;;107731;1249;25939;-79
2023/04/18 13:38:32;;;;;;;4.50;3.10;;;;;;;;;;107817;1248;22540;-79
2023/04/18 13:40:59;;;;;;;6.90;3.50;;;;;;;;;;107799;1249;22607;-78
2023/04/18 13:43:25;;;;;;;8.30;4.80;;;;;;;;;;107830;1249;23785;-79
2023/04/18 13:45:52;;;;;;;7.00;3.90;;;;;;;;;;107727;1251;23035;-79
2023/04/18 13:48:18;;;;;;;12.80;5.30;;;;;;;;;;107750;1252;24201;-78
2023/04/18 13:50:44;;;;;;;9.60;3.50;;;;;;;;;;107845;1252;22533;-79
2023/04/18 13:53:11;;;;;;;8.30;3.20;;;;;;;;;;107686;1250;27530;-80
2023/04/18 13:55:37;;;;;;;6.50;3.70;;;;;;;;;;107654;1251;22556;-80
2023/04/18 13:58:04;;;;;;;9.70;4.40;;;;;;;;;;107679;1250;25381;-78
2023/04/18 14:00:30;;;;;;;9.00;4.40;;;;;;;;;;107564;1252;160860;-80
2023/04/18 14:02:57;;;;;;;8.30;4.60;;;;;;;;;;107660;1250;25336;-79
2023/04/18 14:05:23;;;;;;;6.30;4.30;;;;;;;;;;107819;1249;22606;-78
2023/04/18 14:07:49;;;;;;;8.70;5.90;;;;;;;;;;107637;1250;24119;-78
2023/04/18 14:10:16;;;;;;;9.90;4.30;;;;;;;;;;107574;1253;25510;-78
2023/04/18 14:12:42;;;;;;;10.40;6.30;;;;;;;;;;107671;1249;22524;-79
2023/04/18 14:15:14;;;;;;;6.40;4.10;;;;;;;;;;107667;1250;22622;-78
2023/04/18 14:17:40;;;;;;;9.40;6.30;;;;;;;;;;107681;1252;22533;-79
2023/04/18 14:20:07;;;;;;;6.30;4.10;;;;;;;;;;107689;1250;22658;-79